sensor_id;sensor_type;location;lat;lon;timestamp;P1;durP1;ratioP1;P2;durP2;ratioP2
11620;SDS011;5866;49.094;11.900;2023-01-29T00:01:40;7.77;;;6.07;;
11620;SDS011;5866;49.094;11.900;2023-01-29T00:04:08;7.80;;;6.67;;
11620;SDS011;5866;49.094;11.900;2023-01-29T00:06:37;10.27;;;7.73;;
11620;SDS011;5866;49.094;11.900;2023-01-29T00:09:05;8.03;;;6.23;;
11620;SDS011;5866;49.094;11.900;2023-01-29T00:11:32;11.80;;;6.90;;
11620;SDS011;5866;49.094;11.900;2023-01-29T00:14:01;7.13;;;6.20;;
11620;SDS011;5866;49.094;11.900;2023-01-29T00:16:28;7.63;;;6.40;;
11620;SDS011;5866;49.094;11.900;2023-01-29T00:18:56;7.37;;;5.93;;
11620;SDS011;5866;49.094;11.900;2023-01-29T00:21:23;8.20;;;6.50;;
11620;SDS011;5866;49.094;11.900;2023-01-29T00:23:52;8.93;;;6.77;;
11620;SDS011;5866;49.094;11.900;2023-01-29T00:26:21;7.57;;;6.83;;
11620;SDS011;5866;49.094;11.900;2023-01-29T00:28:48;9.03;;;6.70;;
11620;SDS011;5866;49.094;11.900;2023-01-29T00:31:17;7.57;;;6.73;;
11620;SDS011;5866;49.094;11.900;2023-01-29T00:33:46;9.90;;;6.90;;
11620;SDS011;5866;49.094;11.900;2023-01-29T00:36:14;8.23;;;6.70;;
11620;SDS011;5866;49.094;11.900;2023-01-29T00:38:43;8.57;;;7.03;;
11620;SDS011;5866;49.094;11.900;2023-01-29T00:41:13;6.47;;;5.83;;
11620;SDS011;5866;49.094;11.900;2023-01-29T00:43:59;7.27;;;5.53;;
11620;SDS011;5866;49.094;11.900;2023-01-29T00:46:53;8.53;;;6.13;;
11620;SDS011;5866;49.094;11.900;2023-01-29T00:49:21;6.87;;;6.17;;
11620;SDS011;5866;49.094;11.900;2023-01-29T00:51:49;7.03;;;6.33;;
11620;SDS011;5866;49.094;11.900;2023-01-29T00:54:30;6.93;;;5.87;;
11620;SDS011;5866;49.094;11.900;2023-01-29T00:56:59;7.43;;;5.73;;
11620;SDS011;5866;49.094;11.900;2023-01-29T00:59:27;7.27;;;6.30;;
11620;SDS011;5866;49.094;11.900;2023-01-29T01:01:55;7.23;;;6.27;;
11620;SDS011;5866;49.094;11.900;2023-01-29T01:04:36;8.10;;;6.60;;
11620;SDS011;5866;49.094;11.900;2023-01-29T01:07:04;6.80;;;6.10;;
11620;SDS011;5866;49.094;11.900;2023-01-29T01:09:33;8.57;;;6.20;;
11620;SDS011;5866;49.094;11.900;2023-01-29T01:12:20;9.83;;;6.10;;
11620;SDS011;5866;49.094;11.900;2023-01-29T01:14:48;7.37;;;6.17;;
11620;SDS011;5866;49.094;11.900;2023-01-29T01:17:16;6.80;;;6.10;;
11620;SDS011;5866;49.094;11.900;2023-01-29T01:19:43;8.37;;;5.90;;
11620;SDS011;5866;49.094;11.900;2023-01-29T01:22:11;9.33;;;6.63;;
11620;SDS011;5866;49.094;11.900;2023-01-29T01:24:38;7.40;;;6.33;;
11620;SDS011;5866;49.094;11.900;2023-01-29T01:27:06;8.30;;;6.30;;
11620;SDS011;5866;49.094;11.900;2023-01-29T01:29:35;7.30;;;6.43;;
11620;SDS011;5866;49.094;11.900;2023-01-29T01:32:03;8.07;;;5.90;;
11620;SDS011;5866;49.094;11.900;2023-01-29T01:34:31;7.73;;;6.60;;
11620;SDS011;5866;49.094;11.900;2023-01-29T01:36:58;8.00;;;6.40;;
11620;SDS011;5866;49.094;11.900;2023-01-29T01:39:26;6.70;;;5.83;;
11620;SDS011;5866;49.094;11.900;2023-01-29T01:41:54;8.20;;;6.00;;
11620;SDS011;5866;49.094;11.900;2023-01-29T01:47:30;7.70;;;6.90;;
11620;SDS011;5866;49.094;11.900;2023-01-29T01:50:02;7.40;;;6.40;;
11620;SDS011;5866;49.094;11.900;2023-01-29T01:52:34;7.70;;;6.27;;
11620;SDS011;5866;49.094;11.900;2023-01-29T01:55:04;7.50;;;6.13;;
11620;SDS011;5866;49.094;11.900;2023-01-29T01:57:33;7.60;;;6.33;;
11620;SDS011;5866;49.094;11.900;2023-01-29T02:00:03;9.17;;;6.57;;
11620;SDS011;5866;49.094;11.900;2023-01-29T02:02:37;7.27;;;6.30;;
11620;SDS011;5866;49.094;11.900;2023-01-29T02:05:24;7.60;;;5.70;;
11620;SDS011;5866;49.094;11.900;2023-01-29T02:08:10;8.53;;;6.37;;
11620;SDS011;5866;49.094;11.900;2023-01-29T02:10:56;6.53;;;5.53;;
11620;SDS011;5866;49.094;11.900;2023-01-29T02:13:24;7.23;;;6.20;;
11620;SDS011;5866;49.094;11.900;2023-01-29T02:15:54;7.43;;;6.37;;
11620;SDS011;5866;49.094;11.900;2023-01-29T02:18:21;7.33;;;6.17;;
11620;SDS011;5866;49.094;11.900;2023-01-29T02:20:53;8.67;;;6.33;;
11620;SDS011;5866;49.094;11.900;2023-01-29T02:26:44;6.47;;;5.30;;
11620;SDS011;5866;49.094;11.900;2023-01-29T02:29:24;7.83;;;6.27;;
11620;SDS011;5866;49.094;11.900;2023-01-29T02:32:07;8.47;;;5.80;;
11620;SDS011;5866;49.094;11.900;2023-01-29T02:34:45;7.07;;;6.37;;
11620;SDS011;5866;49.094;11.900;2023-01-29T02:37:38;7.57;;;6.03;;
11620;SDS011;5866;49.094;11.900;2023-01-29T02:40:13;6.60;;;5.13;;
11620;SDS011;5866;49.094;11.900;2023-01-29T02:42:52;5.77;;;3.80;;
11620;SDS011;5866;49.094;11.900;2023-01-29T02:45:30;4.50;;;4.10;;
11620;SDS011;5866;49.094;11.900;2023-01-29T02:48:00;5.10;;;4.60;;
11620;SDS011;5866;49.094;11.900;2023-01-29T02:50:30;5.20;;;4.70;;
11620;SDS011;5866;49.094;11.900;2023-01-29T02:53:04;6.07;;;5.47;;
11620;SDS011;5866;49.094;11.900;2023-01-29T02:55:36;5.80;;;5.30;;
11620;SDS011;5866;49.094;11.900;2023-01-29T02:58:09;5.80;;;5.30;;
11620;SDS011;5866;49.094;11.900;2023-01-29T03:00:41;5.33;;;4.83;;
11620;SDS011;5866;49.094;11.900;2023-01-29T03:03:13;5.63;;;5.13;;
11620;SDS011;5866;49.094;11.900;2023-01-29T03:05:47;5.60;;;5.10;;
11620;SDS011;5866;49.094;11.900;2023-01-29T03:08:22;5.40;;;4.90;;
11620;SDS011;5866;49.094;11.900;2023-01-29T03:11:03;5.33;;;4.87;;
11620;SDS011;5866;49.094;11.900;2023-01-29T03:13:34;5.60;;;5.07;;
11620;SDS011;5866;49.094;11.900;2023-01-29T03:16:10;5.53;;;5.10;;
11620;SDS011;5866;49.094;11.900;2023-01-29T03:18:46;5.73;;;5.23;;
11620;SDS011;5866;49.094;11.900;2023-01-29T03:21:20;6.10;;;5.60;;
11620;SDS011;5866;49.094;11.900;2023-01-29T03:24:09;4.90;;;4.50;;
11620;SDS011;5866;49.094;11.900;2023-01-29T03:26:57;5.07;;;4.67;;
11620;SDS011;5866;49.094;11.900;2023-01-29T03:29:46;5.17;;;4.77;;
11620;SDS011;5866;49.094;11.900;2023-01-29T03:32:35;5.33;;;4.83;;
11620;SDS011;5866;49.094;11.900;2023-01-29T03:35:05;5.73;;;5.13;;
11620;SDS011;5866;49.094;11.900;2023-01-29T03:37:38;4.73;;;4.23;;
11620;SDS011;5866;49.094;11.900;2023-01-29T03:40:11;4.60;;;4.30;;
11620;SDS011;5866;49.094;11.900;2023-01-29T03:42:43;5.30;;;4.90;;
11620;SDS011;5866;49.094;11.900;2023-01-29T03:45:24;5.00;;;4.50;;
11620;SDS011;5866;49.094;11.900;2023-01-29T03:48:01;4.50;;;4.10;;
11620;SDS011;5866;49.094;11.900;2023-01-29T03:50:36;4.07;;;3.67;;
11620;SDS011;5866;49.094;11.900;2023-01-29T03:53:10;5.07;;;4.67;;
11620;SDS011;5866;49.094;11.900;2023-01-29T03:55:44;6.30;;;5.13;;
11620;SDS011;5866;49.094;11.900;2023-01-29T03:58:22;4.90;;;4.47;;
11620;SDS011;5866;49.094;11.900;2023-01-29T04:00:56;4.63;;;4.27;;
11620;SDS011;5866;49.094;11.900;2023-01-29T04:03:30;4.93;;;4.50;;
11620;SDS011;5866;49.094;11.900;2023-01-29T04:06:03;4.57;;;3.70;;
11620;SDS011;5866;49.094;11.900;2023-01-29T04:08:37;4.87;;;4.47;;
11620;SDS011;5866;49.094;11.900;2023-01-29T04:11:11;4.07;;;3.67;;
11620;SDS011;5866;49.094;11.900;2023-01-29T04:13:42;4.77;;;4.37;;
11620;SDS011;5866;49.094;11.900;2023-01-29T04:16:11;4.50;;;4.20;;
11620;SDS011;5866;49.094;11.900;2023-01-29T04:18:45;5.23;;;4.87;;
11620;SDS011;5866;49.094;11.900;2023-01-29T04:21:14;5.20;;;4.77;;
11620;SDS011;5866;49.094;11.900;2023-01-29T04:23:42;4.67;;;4.27;;
11620;SDS011;5866;49.094;11.900;2023-01-29T04:26:16;3.90;;;3.53;;
11620;SDS011;5866;49.094;11.900;2023-01-29T04:28:53;4.60;;;3.70;;
11620;SDS011;5866;49.094;11.900;2023-01-29T04:31:30;5.00;;;4.50;;
11620;SDS011;5866;49.094;11.900;2023-01-29T04:34:09;4.77;;;4.37;;
11620;SDS011;5866;49.094;11.900;2023-01-29T04:36:45;5.53;;;5.13;;
11620;SDS011;5866;49.094;11.900;2023-01-29T04:39:20;4.47;;;4.17;;
11620;SDS011;5866;49.094;11.900;2023-01-29T04:41:53;4.50;;;4.07;;
11620;SDS011;5866;49.094;11.900;2023-01-29T04:44:27;4.50;;;4.13;;
11620;SDS011;5866;49.094;11.900;2023-01-29T04:47:03;4.60;;;4.20;;
11620;SDS011;5866;49.094;11.900;2023-01-29T04:49:40;4.97;;;4.57;;
11620;SDS011;5866;49.094;11.900;2023-01-29T04:52:13;5.27;;;4.77;;
11620;SDS011;5866;49.094;11.900;2023-01-29T04:54:49;5.97;;;5.37;;
11620;SDS011;5866;49.094;11.900;2023-01-29T04:57:24;4.87;;;4.47;;
11620;SDS011;5866;49.094;11.900;2023-01-29T04:59:56;9.03;;;6.40;;
11620;SDS011;5866;49.094;11.900;2023-01-29T05:02:29;5.03;;;4.63;;
11620;SDS011;5866;49.094;11.900;2023-01-29T05:05:02;5.87;;;5.37;;
11620;SDS011;5866;49.094;11.900;2023-01-29T05:07:32;5.73;;;5.10;;
11620;SDS011;5866;49.094;11.900;2023-01-29T05:10:02;5.80;;;5.30;;
11620;SDS011;5866;49.094;11.900;2023-01-29T05:12:31;5.57;;;5.10;;
11620;SDS011;5866;49.094;11.900;2023-01-29T05:15:01;6.00;;;5.37;;
11620;SDS011;5866;49.094;11.900;2023-01-29T05:17:32;4.73;;;4.33;;
11620;SDS011;5866;49.094;11.900;2023-01-29T05:20:01;4.73;;;4.27;;
11620;SDS011;5866;49.094;11.900;2023-01-29T05:22:29;5.07;;;4.57;;
11620;SDS011;5866;49.094;11.900;2023-01-29T05:24:57;5.50;;;5.00;;
11620;SDS011;5866;49.094;11.900;2023-01-29T05:27:26;6.30;;;5.27;;
11620;SDS011;5866;49.094;11.900;2023-01-29T05:30:16;5.43;;;4.93;;
11620;SDS011;5866;49.094;11.900;2023-01-29T05:32:44;6.20;;;5.00;;
11620;SDS011;5866;49.094;11.900;2023-01-29T05:35:12;6.43;;;5.83;;
11620;SDS011;5866;49.094;11.900;2023-01-29T05:37:40;6.37;;;5.77;;
11620;SDS011;5866;49.094;11.900;2023-01-29T05:40:08;5.63;;;5.07;;
11620;SDS011;5866;49.094;11.900;2023-01-29T05:42:36;5.77;;;5.27;;
11620;SDS011;5866;49.094;11.900;2023-01-29T05:45:04;5.07;;;4.57;;
11620;SDS011;5866;49.094;11.900;2023-01-29T05:47:32;5.87;;;5.27;;
11620;SDS011;5866;49.094;11.900;2023-01-29T05:49:59;5.80;;;5.30;;
11620;SDS011;5866;49.094;11.900;2023-01-29T05:52:28;5.50;;;4.53;;
11620;SDS011;5866;49.094;11.900;2023-01-29T05:54:56;4.47;;;3.87;;
11620;SDS011;5866;49.094;11.900;2023-01-29T05:57:23;6.43;;;5.83;;
11620;SDS011;5866;49.094;11.900;2023-01-29T05:59:51;5.07;;;4.57;;
11620;SDS011;5866;49.094;11.900;2023-01-29T06:02:18;7.23;;;6.57;;
11620;SDS011;5866;49.094;11.900;2023-01-29T06:04:46;6.57;;;5.93;;
11620;SDS011;5866;49.094;11.900;2023-01-29T06:07:13;6.40;;;5.80;;
11620;SDS011;5866;49.094;11.900;2023-01-29T06:09:42;6.97;;;6.37;;
11620;SDS011;5866;49.094;11.900;2023-01-29T06:12:10;6.40;;;5.80;;
11620;SDS011;5866;49.094;11.900;2023-01-29T06:14:38;6.53;;;5.90;;
11620;SDS011;5866;49.094;11.900;2023-01-29T06:17:05;7.27;;;6.13;;
11620;SDS011;5866;49.094;11.900;2023-01-29T06:19:33;8.27;;;6.10;;
11620;SDS011;5866;49.094;11.900;2023-01-29T06:22:00;7.07;;;6.37;;
11620;SDS011;5866;49.094;11.900;2023-01-29T06:24:28;5.90;;;5.40;;
11620;SDS011;5866;49.094;11.900;2023-01-29T06:26:57;6.17;;;5.47;;
11620;SDS011;5866;49.094;11.900;2023-01-29T06:29:24;5.93;;;5.33;;
11620;SDS011;5866;49.094;11.900;2023-01-29T06:31:51;7.03;;;5.67;;
11620;SDS011;5866;49.094;11.900;2023-01-29T06:34:19;6.40;;;5.80;;
11620;SDS011;5866;49.094;11.900;2023-01-29T06:36:47;7.40;;;6.70;;
11620;SDS011;5866;49.094;11.900;2023-01-29T06:39:14;7.13;;;6.43;;
11620;SDS011;5866;49.094;11.900;2023-01-29T06:41:42;6.70;;;6.10;;
11620;SDS011;5866;49.094;11.900;2023-01-29T06:44:11;8.00;;;6.87;;
11620;SDS011;5866;49.094;11.900;2023-01-29T06:46:39;7.57;;;6.77;;
11620;SDS011;5866;49.094;11.900;2023-01-29T06:49:06;7.70;;;6.70;;
11620;SDS011;5866;49.094;11.900;2023-01-29T06:51:34;6.67;;;5.90;;
11620;SDS011;5866;49.094;11.900;2023-01-29T06:54:02;8.93;;;6.60;;
11620;SDS011;5866;49.094;11.900;2023-01-29T06:56:31;7.87;;;6.63;;
11620;SDS011;5866;49.094;11.900;2023-01-29T06:58:58;8.83;;;7.93;;
11620;SDS011;5866;49.094;11.900;2023-01-29T07:01:27;6.67;;;6.00;;
11620;SDS011;5866;49.094;11.900;2023-01-29T07:04:01;6.67;;;5.63;;
11620;SDS011;5866;49.094;11.900;2023-01-29T07:06:29;6.97;;;5.77;;
11620;SDS011;5866;49.094;11.900;2023-01-29T07:08:57;6.90;;;5.30;;
11620;SDS011;5866;49.094;11.900;2023-01-29T07:11:25;6.73;;;6.03;;
11620;SDS011;5866;49.094;11.900;2023-01-29T07:13:52;6.87;;;6.17;;
11620;SDS011;5866;49.094;11.900;2023-01-29T07:16:20;6.43;;;5.60;;
11620;SDS011;5866;49.094;11.900;2023-01-29T07:18:49;7.90;;;6.67;;
11620;SDS011;5866;49.094;11.900;2023-01-29T07:21:17;8.10;;;5.83;;
11620;SDS011;5866;49.094;11.900;2023-01-29T07:23:44;8.27;;;6.60;;
11620;SDS011;5866;49.094;11.900;2023-01-29T07:26:12;7.50;;;6.70;;
11620;SDS011;5866;49.094;11.900;2023-01-29T07:28:39;7.27;;;6.57;;
11620;SDS011;5866;49.094;11.900;2023-01-29T07:31:08;9.13;;;6.67;;
11620;SDS011;5866;49.094;11.900;2023-01-29T07:33:39;6.30;;;5.33;;
11620;SDS011;5866;49.094;11.900;2023-01-29T07:36:10;8.43;;;7.03;;
11620;SDS011;5866;49.094;11.900;2023-01-29T07:38:38;7.30;;;6.60;;
11620;SDS011;5866;49.094;11.900;2023-01-29T07:41:05;8.07;;;6.87;;
11620;SDS011;5866;49.094;11.900;2023-01-29T07:43:33;8.17;;;6.73;;
11620;SDS011;5866;49.094;11.900;2023-01-29T07:46:01;7.47;;;6.77;;
11620;SDS011;5866;49.094;11.900;2023-01-29T07:48:29;7.50;;;6.47;;
11620;SDS011;5866;49.094;11.900;2023-01-29T07:50:57;11.37;;;7.00;;
11620;SDS011;5866;49.094;11.900;2023-01-29T07:53:26;8.53;;;7.63;;
11620;SDS011;5866;49.094;11.900;2023-01-29T07:55:54;9.07;;;7.40;;
11620;SDS011;5866;49.094;11.900;2023-01-29T07:58:22;8.23;;;7.33;;
11620;SDS011;5866;49.094;11.900;2023-01-29T08:00:50;10.33;;;7.90;;
11620;SDS011;5866;49.094;11.900;2023-01-29T08:03:18;9.17;;;7.10;;
11620;SDS011;5866;49.094;11.900;2023-01-29T08:05:46;7.90;;;6.70;;
11620;SDS011;5866;49.094;11.900;2023-01-29T08:08:14;7.13;;;6.43;;
11620;SDS011;5866;49.094;11.900;2023-01-29T08:10:43;8.83;;;7.90;;
11620;SDS011;5866;49.094;11.900;2023-01-29T08:13:10;11.37;;;9.10;;
11620;SDS011;5866;49.094;11.900;2023-01-29T08:15:38;8.17;;;7.37;;
11620;SDS011;5866;49.094;11.900;2023-01-29T08:18:08;12.63;;;9.50;;
11620;SDS011;5866;49.094;11.900;2023-01-29T08:20:36;6.77;;;6.17;;
11620;SDS011;5866;49.094;11.900;2023-01-29T08:23:04;7.53;;;6.17;;
11620;SDS011;5866;49.094;11.900;2023-01-29T08:25:32;7.80;;;6.47;;
11620;SDS011;5866;49.094;11.900;2023-01-29T08:28:03;8.90;;;7.50;;
11620;SDS011;5866;49.094;11.900;2023-01-29T08:30:31;10.67;;;8.33;;
11620;SDS011;5866;49.094;11.900;2023-01-29T08:33:00;11.87;;;6.23;;
11620;SDS011;5866;49.094;11.900;2023-01-29T08:35:29;8.60;;;5.47;;
11620;SDS011;5866;49.094;11.900;2023-01-29T08:37:57;9.37;;;7.77;;
11620;SDS011;5866;49.094;11.900;2023-01-29T08:40:26;9.43;;;6.77;;
11620;SDS011;5866;49.094;11.900;2023-01-29T08:42:56;8.57;;;7.30;;
11620;SDS011;5866;49.094;11.900;2023-01-29T08:45:29;11.10;;;8.17;;
11620;SDS011;5866;49.094;11.900;2023-01-29T08:47:57;8.63;;;7.80;;
11620;SDS011;5866;49.094;11.900;2023-01-29T08:50:24;6.87;;;5.73;;
11620;SDS011;5866;49.094;11.900;2023-01-29T08:52:55;7.90;;;7.10;;
11620;SDS011;5866;49.094;11.900;2023-01-29T08:55:23;10.83;;;6.20;;
11620;SDS011;5866;49.094;11.900;2023-01-29T08:57:51;7.43;;;5.70;;
11620;SDS011;5866;49.094;11.900;2023-01-29T09:00:18;13.03;;;8.33;;
11620;SDS011;5866;49.094;11.900;2023-01-29T09:02:48;13.47;;;8.47;;
11620;SDS011;5866;49.094;11.900;2023-01-29T09:05:15;15.00;;;9.03;;
11620;SDS011;5866;49.094;11.900;2023-01-29T09:07:44;7.07;;;6.13;;
11620;SDS011;5866;49.094;11.900;2023-01-29T09:10:11;8.80;;;6.73;;
11620;SDS011;5866;49.094;11.900;2023-01-29T09:12:39;8.13;;;7.10;;
11620;SDS011;5866;49.094;11.900;2023-01-29T09:15:06;9.23;;;8.00;;
11620;SDS011;5866;49.094;11.900;2023-01-29T09:17:35;8.13;;;7.17;;
11620;SDS011;5866;49.094;11.900;2023-01-29T09:20:04;7.73;;;7.00;;
11620;SDS011;5866;49.094;11.900;2023-01-29T09:22:32;8.47;;;6.80;;
11620;SDS011;5866;49.094;11.900;2023-01-29T09:25:00;17.73;;;10.63;;
11620;SDS011;5866;49.094;11.900;2023-01-29T09:27:28;16.00;;;10.07;;
11620;SDS011;5866;49.094;11.900;2023-01-29T09:29:56;8.27;;;7.20;;
11620;SDS011;5866;49.094;11.900;2023-01-29T09:32:23;17.40;;;11.13;;
11620;SDS011;5866;49.094;11.900;2023-01-29T09:35:12;12.30;;;9.17;;
11620;SDS011;5866;49.094;11.900;2023-01-29T09:37:40;8.73;;;7.83;;
11620;SDS011;5866;49.094;11.900;2023-01-29T09:40:09;8.20;;;7.17;;
11620;SDS011;5866;49.094;11.900;2023-01-29T09:42:47;7.40;;;6.60;;
11620;SDS011;5866;49.094;11.900;2023-01-29T09:45:19;9.53;;;8.13;;
11620;SDS011;5866;49.094;11.900;2023-01-29T09:47:50;9.07;;;8.17;;
11620;SDS011;5866;49.094;11.900;2023-01-29T09:50:21;8.30;;;7.50;;
11620;SDS011;5866;49.094;11.900;2023-01-29T09:52:53;8.30;;;6.93;;
11620;SDS011;5866;49.094;11.900;2023-01-29T09:55:23;8.63;;;7.53;;
11620;SDS011;5866;49.094;11.900;2023-01-29T09:57:53;10.27;;;7.87;;
11620;SDS011;5866;49.094;11.900;2023-01-29T10:00:24;9.13;;;7.43;;
11620;SDS011;5866;49.094;11.900;2023-01-29T10:03:05;7.03;;;6.20;;
11620;SDS011;5866;49.094;11.900;2023-01-29T10:05:45;19.97;;;18.47;;
11620;SDS011;5866;49.094;11.900;2023-01-29T10:08:43;14.87;;;13.40;;
11620;SDS011;5866;49.094;11.900;2023-01-29T10:11:31;18.80;;;17.50;;
11620;SDS011;5866;49.094;11.900;2023-01-29T10:14:10;22.67;;;21.07;;
11620;SDS011;5866;49.094;11.900;2023-01-29T10:16:48;34.23;;;32.10;;
11620;SDS011;5866;49.094;11.900;2023-01-29T10:22:37;40.80;;;38.40;;
11620;SDS011;5866;49.094;11.900;2023-01-29T10:25:12;31.70;;;29.50;;
11620;SDS011;5866;49.094;11.900;2023-01-29T10:27:44;26.00;;;24.37;;
11620;SDS011;5866;49.094;11.900;2023-01-29T10:30:19;24.13;;;22.23;;
11620;SDS011;5866;49.094;11.900;2023-01-29T10:32:52;30.30;;;28.40;;
11620;SDS011;5866;49.094;11.900;2023-01-29T10:35:22;16.47;;;15.27;;
11620;SDS011;5866;49.094;11.900;2023-01-29T10:37:52;15.20;;;13.97;;
11620;SDS011;5866;49.094;11.900;2023-01-29T10:40:21;16.43;;;15.00;;
11620;SDS011;5866;49.094;11.900;2023-01-29T10:42:52;15.73;;;14.43;;
11620;SDS011;5866;49.094;11.900;2023-01-29T10:45:28;10.87;;;9.97;;
11620;SDS011;5866;49.094;11.900;2023-01-29T10:48:07;19.50;;;18.10;;
11620;SDS011;5866;49.094;11.900;2023-01-29T10:50:47;22.43;;;20.93;;
11620;SDS011;5866;49.094;11.900;2023-01-29T10:56:17;30.30;;;28.43;;
11620;SDS011;5866;49.094;11.900;2023-01-29T10:58:55;25.93;;;24.23;;
11620;SDS011;5866;49.094;11.900;2023-01-29T11:01:27;20.53;;;19.13;;
11620;SDS011;5866;49.094;11.900;2023-01-29T11:03:55;22.20;;;20.63;;
11620;SDS011;5866;49.094;11.900;2023-01-29T11:06:27;24.60;;;22.93;;
11620;SDS011;5866;49.094;11.900;2023-01-29T11:09:00;45.57;;;42.87;;
11620;SDS011;5866;49.094;11.900;2023-01-29T11:11:33;46.23;;;43.43;;
11620;SDS011;5866;49.094;11.900;2023-01-29T11:14:07;42.70;;;40.20;;
11620;SDS011;5866;49.094;11.900;2023-01-29T11:16:41;48.63;;;45.93;;
11620;SDS011;5866;49.094;11.900;2023-01-29T11:19:11;45.60;;;43.00;;
11620;SDS011;5866;49.094;11.900;2023-01-29T11:21:49;56.90;;;53.60;;
11620;SDS011;5866;49.094;11.900;2023-01-29T11:24:20;55.73;;;52.57;;
11620;SDS011;5866;49.094;11.900;2023-01-29T11:26:47;56.10;;;52.77;;
11620;SDS011;5866;49.094;11.900;2023-01-29T11:29:33;46.53;;;43.90;;
11620;SDS011;5866;49.094;11.900;2023-01-29T11:32:05;47.20;;;44.50;;
11620;SDS011;5866;49.094;11.900;2023-01-29T11:37:26;53.40;;;50.27;;
11620;SDS011;5866;49.094;11.900;2023-01-29T11:40:00;52.30;;;49.33;;
11620;SDS011;5866;49.094;11.900;2023-01-29T11:42:29;47.47;;;44.87;;
11620;SDS011;5866;49.094;11.900;2023-01-29T11:44:58;52.60;;;49.50;;
11620;SDS011;5866;49.094;11.900;2023-01-29T11:47:26;53.23;;;50.03;;
11620;SDS011;5866;49.094;11.900;2023-01-29T11:49:56;57.23;;;53.93;;
11620;SDS011;5866;49.094;11.900;2023-01-29T11:52:35;50.10;;;47.13;;
11620;SDS011;5866;49.094;11.900;2023-01-29T11:55:12;45.33;;;42.73;;
11620;SDS011;5866;49.094;11.900;2023-01-29T11:57:45;48.00;;;45.07;;
11620;SDS011;5866;49.094;11.900;2023-01-29T12:00:18;49.23;;;46.00;;
11620;SDS011;5866;49.094;11.900;2023-01-29T12:02:49;47.80;;;45.00;;
11620;SDS011;5866;49.094;11.900;2023-01-29T12:05:21;42.87;;;40.40;;
11620;SDS011;5866;49.094;11.900;2023-01-29T12:07:51;20.33;;;19.00;;
11620;SDS011;5866;49.094;11.900;2023-01-29T12:10:30;31.17;;;28.87;;
11620;SDS011;5866;49.094;11.900;2023-01-29T12:13:06;39.07;;;36.60;;
11620;SDS011;5866;49.094;11.900;2023-01-29T12:15:45;33.07;;;30.53;;
11620;SDS011;5866;49.094;11.900;2023-01-29T12:18:15;36.37;;;33.87;;
11620;SDS011;5866;49.094;11.900;2023-01-29T12:20:52;24.93;;;23.33;;
11620;SDS011;5866;49.094;11.900;2023-01-29T12:23:26;27.43;;;25.70;;
11620;SDS011;5866;49.094;11.900;2023-01-29T12:26:03;26.00;;;24.23;;
11620;SDS011;5866;49.094;11.900;2023-01-29T12:28:38;19.67;;;18.27;;
11620;SDS011;5866;49.094;11.900;2023-01-29T12:31:17;14.37;;;13.17;;
11620;SDS011;5866;49.094;11.900;2023-01-29T12:33:51;6.63;;;6.03;;
11620;SDS011;5866;49.094;11.900;2023-01-29T12:36:23;7.53;;;5.70;;
11620;SDS011;5866;49.094;11.900;2023-01-29T12:38:54;16.53;;;15.03;;
11620;SDS011;5866;49.094;11.900;2023-01-29T12:41:27;23.33;;;21.60;;
11620;SDS011;5866;49.094;11.900;2023-01-29T12:44:01;22.17;;;20.67;;
11620;SDS011;5866;49.094;11.900;2023-01-29T12:46:32;20.87;;;19.37;;
11620;SDS011;5866;49.094;11.900;2023-01-29T12:49:07;16.33;;;15.10;;
11620;SDS011;5866;49.094;11.900;2023-01-29T12:51:42;29.73;;;27.83;;
11620;SDS011;5866;49.094;11.900;2023-01-29T12:54:20;24.60;;;22.77;;
11620;SDS011;5866;49.094;11.900;2023-01-29T12:56:54;16.67;;;15.10;;
11620;SDS011;5866;49.094;11.900;2023-01-29T12:59:26;13.20;;;12.00;;
11620;SDS011;5866;49.094;11.900;2023-01-29T13:01:58;10.13;;;9.13;;
11620;SDS011;5866;49.094;11.900;2023-01-29T13:04:37;11.20;;;10.20;;
11620;SDS011;5866;49.094;11.900;2023-01-29T13:07:09;13.93;;;12.77;;
11620;SDS011;5866;49.094;11.900;2023-01-29T13:09:41;16.60;;;15.37;;
11620;SDS011;5866;49.094;11.900;2023-01-29T13:12:13;15.40;;;14.23;;
11620;SDS011;5866;49.094;11.900;2023-01-29T13:14:44;12.30;;;11.30;;
11620;SDS011;5866;49.094;11.900;2023-01-29T13:17:17;17.13;;;15.93;;
11620;SDS011;5866;49.094;11.900;2023-01-29T13:19:50;36.30;;;34.00;;
11620;SDS011;5866;49.094;11.900;2023-01-29T13:22:21;45.00;;;42.10;;
11620;SDS011;5866;49.094;11.900;2023-01-29T13:24:51;38.43;;;36.03;;
11620;SDS011;5866;49.094;11.900;2023-01-29T13:27:32;20.40;;;19.07;;
11620;SDS011;5866;49.094;11.900;2023-01-29T13:30:01;25.13;;;23.43;;
11620;SDS011;5866;49.094;11.900;2023-01-29T13:32:30;19.33;;;17.93;;
11620;SDS011;5866;49.094;11.900;2023-01-29T13:34:59;29.57;;;27.67;;
11620;SDS011;5866;49.094;11.900;2023-01-29T13:37:30;40.17;;;37.07;;
11620;SDS011;5866;49.094;11.900;2023-01-29T13:40:00;42.43;;;37.70;;
11620;SDS011;5866;49.094;11.900;2023-01-29T13:42:36;57.00;;;51.63;;
11620;SDS011;5866;49.094;11.900;2023-01-29T13:45:16;50.23;;;46.43;;
11620;SDS011;5866;49.094;11.900;2023-01-29T13:47:47;51.87;;;48.73;;
11620;SDS011;5866;49.094;11.900;2023-01-29T13:50:18;48.43;;;45.63;;
11620;SDS011;5866;49.094;11.900;2023-01-29T13:52:53;50.27;;;47.20;;
11620;SDS011;5866;49.094;11.900;2023-01-29T13:55:25;42.23;;;39.63;;
11620;SDS011;5866;49.094;11.900;2023-01-29T13:57:58;46.17;;;43.37;;
11620;SDS011;5866;49.094;11.900;2023-01-29T14:06:44;53.23;;;49.77;;
11620;SDS011;5866;49.094;11.900;2023-01-29T14:09:33;54.70;;;51.30;;
11620;SDS011;5866;49.094;11.900;2023-01-29T14:12:30;54.83;;;51.53;;
11620;SDS011;5866;49.094;11.900;2023-01-29T14:15:13;54.10;;;50.83;;
11620;SDS011;5866;49.094;11.900;2023-01-29T14:17:55;57.63;;;54.13;;
11620;SDS011;5866;49.094;11.900;2023-01-29T14:20:29;61.37;;;57.60;;
11620;SDS011;5866;49.094;11.900;2023-01-29T14:23:17;53.53;;;50.40;;
11620;SDS011;5866;49.094;11.900;2023-01-29T14:25:50;57.00;;;53.60;;
11620;SDS011;5866;49.094;11.900;2023-01-29T14:28:19;61.10;;;57.60;;
11620;SDS011;5866;49.094;11.900;2023-01-29T14:30:51;55.60;;;52.27;;
11620;SDS011;5866;49.094;11.900;2023-01-29T14:33:22;47.10;;;44.20;;
11620;SDS011;5866;49.094;11.900;2023-01-29T14:35:53;40.53;;;37.93;;
11620;SDS011;5866;49.094;11.900;2023-01-29T14:38:23;45.00;;;42.30;;
11620;SDS011;5866;49.094;11.900;2023-01-29T14:41:04;38.87;;;36.30;;
11620;SDS011;5866;49.094;11.900;2023-01-29T14:43:40;31.60;;;29.50;;
11620;SDS011;5866;49.094;11.900;2023-01-29T14:49:11;20.13;;;18.73;;
11620;SDS011;5866;49.094;11.900;2023-01-29T14:51:42;19.50;;;18.10;;
11620;SDS011;5866;49.094;11.900;2023-01-29T14:54:14;18.83;;;17.37;;
11620;SDS011;5866;49.094;11.900;2023-01-29T14:56:49;26.70;;;24.80;;
11620;SDS011;5866;49.094;11.900;2023-01-29T14:59:25;23.77;;;22.17;;
11620;SDS011;5866;49.094;11.900;2023-01-29T15:02:01;16.33;;;15.10;;
11620;SDS011;5866;49.094;11.900;2023-01-29T15:04:37;15.17;;;13.87;;
11620;SDS011;5866;49.094;11.900;2023-01-29T15:07:13;15.27;;;14.07;;
11620;SDS011;5866;49.094;11.900;2023-01-29T15:09:47;14.13;;;12.93;;
11620;SDS011;5866;49.094;11.900;2023-01-29T15:12:26;10.83;;;9.73;;
11620;SDS011;5866;49.094;11.900;2023-01-29T15:15:00;12.53;;;11.43;;
11620;SDS011;5866;49.094;11.900;2023-01-29T15:17:35;11.30;;;10.00;;
11620;SDS011;5866;49.094;11.900;2023-01-29T15:20:25;11.07;;;9.43;;
11620;SDS011;5866;49.094;11.900;2023-01-29T15:22:55;8.83;;;7.93;;
11620;SDS011;5866;49.094;11.900;2023-01-29T15:25:23;8.87;;;7.97;;
11620;SDS011;5866;49.094;11.900;2023-01-29T15:27:51;8.23;;;7.23;;
11620;SDS011;5866;49.094;11.900;2023-01-29T15:30:21;8.47;;;6.97;;
11620;SDS011;5866;49.094;11.900;2023-01-29T15:32:59;9.43;;;7.70;;